Station Historical Data
Daily Summary for January 22, 2018 Units:  English    Metric   Both
« Previous Day
Next Day »
Daily Weekly Monthly Yearly Custom
  High: Low: Average:
Temperature: 50.3 °F 37.3 °F 43.4 °F
Dew Point: 46.9 °F 35.2 °F 41.3 °F
Humidity: 94% 86% 92%
Wind Speed: 6.0mph 0.0mph 0.8mph
Wind Gust: 8.0mph - -
Wind- - East
Pressure: 30.08 in 29.63 in -
Precipitation: 0.00 in    
Historical Graphs
 
 
Tabular Data for January 22, 2018
Time Temperature Dew Point Pressure Wind Wind Speed Wind Gust Humidity Rainfall Rate (Hourly)
00:04 37.6 °F 35.5 °F 30.08 in Calm     92% 0.00 in
00:19 37.4 °F 35.3 °F 30.08 in Calm     92% 0.00 in
00:29 37.3 °F 35.2 °F 30.08 in Calm     92% 0.00 in
00:34 37.3 °F 35.2 °F 30.08 in Calm     92% 0.00 in
00:44 37.5 °F 35.4 °F 30.08 in Calm     92% 0.00 in
00:54 37.5 °F 35.4 °F 30.08 in Calm     92% 0.00 in
00:59 37.6 °F 35.5 °F 30.08 in Calm     92% 0.00 in
01:04 37.7 °F 35.6 °F 30.07 in Calm     92% 0.00 in
01:09 37.7 °F 35.6 °F 30.07 in Calm     92% 0.00 in
01:14 37.7 °F 35.6 °F 30.07 in Calm     92% 0.00 in
01:29 37.7 °F 35.6 °F 30.07 in Calm     92% 0.00 in
01:34 37.8 °F 35.7 °F 30.07 in Calm     92% 0.00 in
01:39 37.8 °F 35.7 °F 30.07 in Calm     92% 0.00 in
01:49 37.7 °F 35.6 °F 30.07 in Calm     92% 0.00 in
01:59 37.7 °F 35.6 °F 30.07 in Calm     92% 0.00 in
02:04 37.7 °F 35.6 °F 30.07 in Calm     92% 0.00 in
02:09 37.7 °F 35.6 °F 30.07 in Calm     92% 0.00 in
02:19 37.7 °F 35.6 °F 30.07 in Calm     92% 0.00 in
02:24 37.8 °F 35.7 °F 30.07 in Calm     92% 0.00 in
02:34 38.0 °F 35.9 °F 30.07 in Calm     92% 0.00 in
02:39 38.2 °F 36.1 °F 30.07 in Calm     92% 0.00 in
02:44 38.1 °F 36.0 °F 30.07 in Calm     92% 0.00 in
02:49 38.1 °F 36.3 °F 30.07 in Calm     93% 0.00 in
02:54 38.1 °F 36.0 °F 30.07 in Calm     92% 0.00 in
02:59 38.1 °F 36.3 °F 30.07 in Calm     93% 0.00 in
03:04 38.2 °F 36.4 °F 30.07 in Calm     93% 0.00 in
03:09 38.1 °F 36.3 °F 30.07 in Calm     93% 0.00 in
03:14 38.0 °F 35.9 °F 30.07 in Calm     92% 0.00 in
03:19 38.1 °F 36.3 °F 30.06 in Calm     93% 0.00 in
03:24 38.2 °F 36.4 °F 30.07 in Calm     93% 0.00 in
03:29 38.2 °F 36.4 °F 30.07 in Calm     93% 0.00 in
03:34 38.2 °F 36.4 °F 30.07 in Calm     93% 0.00 in
03:39 38.3 °F 36.5 °F 30.06 in Calm     93% 0.00 in
03:44 38.3 °F 36.5 °F 30.06 in Calm     93% 0.00 in
03:49 38.3 °F 36.5 °F 30.06 in Calm     93% 0.00 in
03:54 38.4 °F 36.6 °F 30.06 in Calm     93% 0.00 in
03:59 38.5 °F 36.7 °F 30.06 in Calm     93% 0.00 in
04:04 38.5 °F 36.7 °F 30.06 in Calm     93% 0.00 in
04:09 38.5 °F 36.7 °F 30.05 in Calm     93% 0.00 in
04:14 38.4 °F 36.6 °F 30.06 in Calm     93% 0.00 in
04:19 38.5 °F 36.7 °F 30.06 in Calm     93% 0.00 in
04:29 38.5 °F 36.7 °F 30.06 in Calm     93% 0.00 in
04:34 38.5 °F 36.7 °F 30.06 in Calm     93% 0.00 in
04:39 38.6 °F 36.8 °F 30.06 in Calm     93% 0.00 in
04:49 38.5 °F 36.7 °F 30.06 in Calm     93% 0.00 in
04:54 38.5 °F 36.7 °F 30.06 in Calm     93% 0.00 in
04:59 38.6 °F 36.8 °F 30.06 in Calm     93% 0.00 in
05:04 38.6 °F 36.8 °F 30.05 in Calm     93% 0.00 in
05:09 38.5 °F 36.7 °F 30.05 in Calm     93% 0.00 in
05:14 38.6 °F 36.8 °F 30.06 in Calm     93% 0.00 in
05:19 38.7 °F 36.9 °F 30.06 in Calm     93% 0.00 in
05:24 38.8 °F 36.9 °F 30.06 in Calm     93% 0.00 in
05:29 38.8 °F 36.9 °F 30.06 in Calm     93% 0.00 in
05:34 38.8 °F 36.9 °F 30.06 in Calm     93% 0.00 in
05:54 39.1 °F 37.2 °F 30.06 in Calm     93% 0.00 in
05:59 39.2 °F 37.3 °F 30.06 in Calm     93% 0.00 in
06:04 39.1 °F 37.2 °F 30.05 in Calm   3.0 mph 93% 0.00 in
06:09 39.2 °F 37.3 °F 30.05 in Calm   3.0 mph 93% 0.00 in
06:14 39.2 °F 37.3 °F 30.05 in SW 1.0 mph 2.0 mph 93% 0.00 in
06:24 39.4 °F 37.5 °F 30.05 in Calm     93% 0.00 in
06:29 39.3 °F 37.4 °F 30.05 in Calm     93% 0.00 in
06:34 39.3 °F 37.4 °F 30.05 in Calm     93% 0.00 in
06:39 39.3 °F 37.7 °F 30.06 in Calm     94% 0.00 in
06:44 39.4 °F 37.8 °F 30.07 in Calm     94% 0.00 in
06:54 39.3 °F 37.4 °F 30.07 in Calm     93% 0.01 in
06:59 39.5 °F 37.9 °F 30.07 in Calm     94% 0.01 in
07:04 39.3 °F 37.4 °F 30.06 in Calm     93% 0.01 in
07:09 39.4 °F 37.8 °F 30.06 in Calm     94% 0.01 in
07:14 39.5 °F 37.9 °F 30.05 in Calm     94% 0.01 in
07:19 39.5 °F 37.9 °F 30.05 in South 1.0 mph 4.0 mph 94% 0.01 in
07:24 39.6 °F 38.0 °F 30.05 in South 1.0 mph 3.0 mph 94% 0.01 in
07:29 39.7 °F 38.1 °F 30.06 in Calm   3.0 mph 94% 0.01 in
07:39 39.8 °F 38.2 °F 30.05 in Calm   3.0 mph 94% 0.01 in
07:44 39.7 °F 37.8 °F 30.05 in South 3.0 mph 5.0 mph 93% 0.01 in
07:59 39.7 °F 38.1 °F 30.04 in Calm   4.0 mph 94% 0.00 in
08:04 39.6 °F 37.7 °F 30.04 in SSE 1.0 mph 4.0 mph 93% 0.00 in
08:14 39.6 °F 38.0 °F 30.04 in SSE 1.0 mph 4.0 mph 94% 0.01 in
08:19 39.7 °F 38.1 °F 30.04 in SSE 2.0 mph 5.0 mph 94% 0.01 in
08:24 39.7 °F 38.1 °F 30.04 in Calm   3.0 mph 94% 0.01 in
08:29 39.9 °F 38.3 °F 30.04 in Calm   4.0 mph 94% 0.01 in
08:39 39.9 °F 38.3 °F 30.03 in SSE 2.0 mph 5.0 mph 94% 0.01 in
08:49 40.4 °F 38.8 °F 30.02 in ESE 3.0 mph 8.0 mph 94% 0.01 in
08:54 40.4 °F 38.8 °F 30.02 in East 1.0 mph 6.0 mph 94% 0.01 in
09:04 40.4 °F 38.8 °F 30.02 in Calm   7.0 mph 94% 0.01 in
09:09 40.4 °F 38.8 °F 30.02 in East 2.0 mph 5.0 mph 94% 0.01 in
09:14 40.4 °F 38.8 °F 30.02 in East 1.0 mph 5.0 mph 94% 0.00 in
09:24 40.7 °F 39.1 °F 30.02 in East 2.0 mph 6.0 mph 94% 0.00 in
09:29 40.9 °F 39.3 °F 30.02 in East 2.0 mph 7.0 mph 94% 0.00 in
09:34 41.0 °F 39.4 °F 30.02 in East 6.0 mph 6.0 mph 94% 0.00 in
09:39 41.1 °F 39.5 °F 30.02 in ESE 3.0 mph 6.0 mph 94% 0.00 in
09:44 41.1 °F 39.5 °F 30.02 in East 3.0 mph 6.0 mph 94% 0.00 in
09:49 41.2 °F 39.6 °F 30.02 in East 2.0 mph 6.0 mph 94% 0.00 in
09:54 41.2 °F 39.6 °F 30.02 in East 2.0 mph 6.0 mph 94% 0.00 in
09:59 41.2 °F 39.6 °F 30.01 in East 1.0 mph 6.0 mph 94% 0.00 in
10:04 41.2 °F 39.6 °F 30.01 in East 2.0 mph 6.0 mph 94% 0.00 in
10:09 41.3 °F 39.7 °F 30.01 in East 2.0 mph 7.0 mph 94% 0.00 in
10:14 41.2 °F 39.6 °F 30.01 in East 2.0 mph 7.0 mph 94% 0.00 in
10:19 41.2 °F 39.6 °F 30.01 in East 2.0 mph 7.0 mph 94% 0.00 in
10:24 41.2 °F 39.6 °F 30.01 in East 3.0 mph 5.0 mph 94% 0.00 in
10:29 41.2 °F 39.6 °F 30.01 in East 5.0 mph 6.0 mph 94% 0.00 in
10:34 41.3 °F 39.7 °F 30.01 in East 1.0 mph 5.0 mph 94% 0.01 in
10:39 41.4 °F 39.8 °F 30.00 in East 5.0 mph 6.0 mph 94% 0.01 in
10:44 41.5 °F 39.9 °F 30.00 in East 2.0 mph 7.0 mph 94% 0.02 in
10:49 41.7 °F 40.1 °F 30.00 in East 1.0 mph 5.0 mph 94% 0.02 in
10:54 42.0 °F 40.4 °F 30.00 in East 1.0 mph 5.0 mph 94% 0.02 in
10:59 42.1 °F 40.5 °F 30.00 in East 1.0 mph 6.0 mph 94% 0.03 in
11:04 42.2 °F 40.6 °F 29.99 in East 2.0 mph 6.0 mph 94% 0.03 in
11:09 42.2 °F 40.6 °F 29.99 in East 2.0 mph 6.0 mph 94% 0.03 in
11:14 42.2 °F 40.6 °F 29.98 in East 2.0 mph 5.0 mph 94% 0.03 in
11:19 42.3 °F 40.7 °F 29.98 in East 1.0 mph 5.0 mph 94% 0.03 in
11:24 42.2 °F 40.6 °F 29.98 in Calm   5.0 mph 94% 0.04 in
11:29 42.3 °F 40.7 °F 29.98 in ENE 2.0 mph 5.0 mph 94% 0.04 in
11:34 42.4 °F 40.8 °F 29.97 in ENE 2.0 mph 3.0 mph 94% 0.03 in
11:39 42.5 °F 40.9 °F 29.97 in ENE 2.0 mph 4.0 mph 94% 0.03 in
11:44 42.6 °F 41.0 °F 29.97 in ENE 2.0 mph 5.0 mph 94% 0.03 in
11:49 42.7 °F 41.1 °F 29.96 in ENE 1.0 mph 4.0 mph 94% 0.03 in
11:54 42.7 °F 41.1 °F 29.96 in ENE 2.0 mph 7.0 mph 94% 0.04 in
11:59 42.6 °F 41.0 °F 29.96 in ENE 2.0 mph 4.0 mph 94% 0.03 in
12:04 42.6 °F 41.0 °F 29.95 in ENE 2.0 mph 7.0 mph 94% 0.03 in
12:09 42.6 °F 41.0 °F 29.95 in ENE 2.0 mph 7.0 mph 94% 0.03 in
12:14 42.7 °F 41.1 °F 29.94 in ENE 2.0 mph 5.0 mph 94% 0.03 in
12:19 42.6 °F 41.0 °F 29.94 in ENE 2.0 mph 5.0 mph 94% 0.03 in
12:24 42.9 °F 41.3 °F 29.93 in ENE 1.0 mph 3.0 mph 94% 0.02 in
12:29 43.1 °F 41.5 °F 29.93 in ENE 2.0 mph 4.0 mph 94% 0.02 in
12:34 43.4 °F 41.8 °F 29.93 in ENE 2.0 mph 3.0 mph 94% 0.02 in
12:39 43.6 °F 42.0 °F 29.93 in ENE 3.0 mph 4.0 mph 94% 0.02 in
12:44 43.7 °F 42.1 °F 29.93 in ENE 3.0 mph 4.0 mph 94% 0.01 in
12:49 43.8 °F 42.2 °F 29.93 in ENE 2.0 mph 3.0 mph 94% 0.01 in
12:54 43.9 °F 42.3 °F 29.92 in ENE 2.0 mph 4.0 mph 94% 0.00 in
12:59 44.1 °F 42.5 °F 29.92 in ENE 2.0 mph 4.0 mph 94% 0.00 in
13:04 44.3 °F 42.7 °F 29.91 in ENE 2.0 mph 4.0 mph 94% 0.00 in
13:09 44.6 °F 43.0 °F 29.91 in ENE 2.0 mph 4.0 mph 94% 0.00 in
13:14 45.0 °F 43.4 °F 29.90 in ENE 1.0 mph 4.0 mph 94% 0.00 in
13:19 45.2 °F 43.6 °F 29.90 in ENE 2.0 mph 5.0 mph 94% 0.00 in
13:24 45.9 °F 44.3 °F 29.89 in ENE 2.0 mph 5.0 mph 94% 0.00 in
13:29 46.2 °F 44.6 °F 29.89 in ENE 2.0 mph 4.0 mph 94% 0.00 in
13:34 46.0 °F 44.1 °F 29.89 in ENE 2.0 mph 4.0 mph 93% 0.00 in
13:39 46.2 °F 44.3 °F 29.89 in Calm   3.0 mph 93% 0.00 in
13:44 46.3 °F 44.4 °F 29.88 in ENE 2.0 mph 3.0 mph 93% 0.00 in
13:49 46.4 °F 44.5 °F 29.89 in ENE 2.0 mph 3.0 mph 93% 0.00 in
13:54 46.3 °F 44.4 °F 29.88 in Calm   5.0 mph 93% 0.00 in
13:59 46.3 °F 44.4 °F 29.88 in ENE 3.0 mph 4.0 mph 93% 0.00 in
14:04 46.6 °F 44.7 °F 29.88 in ENE 3.0 mph 4.0 mph 93% 0.00 in
14:09 46.6 °F 44.7 °F 29.88 in ENE 2.0 mph 4.0 mph 93% 0.00 in
14:14 46.8 °F 44.9 °F 29.88 in ENE 2.0 mph 4.0 mph 93% 0.00 in
14:19 46.9 °F 44.7 °F 29.87 in ENE 2.0 mph 4.0 mph 92% 0.00 in
14:24 46.9 °F 44.7 °F 29.87 in ENE 2.0 mph 4.0 mph 92% 0.00 in
14:29 46.9 °F 44.7 °F 29.87 in ENE 2.0 mph 5.0 mph 92% 0.00 in
14:34 46.8 °F 44.6 °F 29.86 in Calm   4.0 mph 92% 0.00 in
14:39 46.9 °F 44.7 °F 29.86 in Calm   3.0 mph 92% 0.00 in
14:44 46.9 °F 44.7 °F 29.85 in ENE 1.0 mph 4.0 mph 92% 0.00 in
14:49 46.9 °F 44.7 °F 29.86 in ENE 1.0 mph 4.0 mph 92% 0.00 in
14:54 47.1 °F 44.9 °F 29.86 in ENE 1.0 mph 4.0 mph 92% 0.00 in
14:59 47.1 °F 44.6 °F 29.86 in Calm     91% 0.00 in
15:04 47.3 °F 45.1 °F 29.85 in Calm     92% 0.00 in
15:09 47.4 °F 44.9 °F 29.85 in Calm   3.0 mph 91% 0.00 in
15:14 47.5 °F 45.0 °F 29.85 in ENE 1.0 mph 3.0 mph 91% 0.00 in
15:19 47.6 °F 45.1 °F 29.85 in ENE 1.0 mph 3.0 mph 91% 0.00 in
15:24 47.7 °F 45.2 °F 29.86 in Calm   2.0 mph 91% 0.00 in
15:29 47.7 °F 45.2 °F 29.85 in ENE 1.0 mph 2.0 mph 91% 0.00 in
15:34 47.4 °F 44.9 °F 29.87 in ENE 2.0 mph 3.0 mph 91% 0.00 in
15:39 47.3 °F 44.8 °F 29.87 in Calm   2.0 mph 91% 0.02 in
15:44 47.3 °F 44.8 °F 29.87 in Calm     91% 0.03 in
15:49 47.0 °F 44.5 °F 29.86 in Calm     91% 0.03 in
15:54 46.8 °F 44.3 °F 29.86 in Calm     91% 0.04 in
15:59 46.9 °F 44.4 °F 29.86 in Calm     91% 0.04 in
16:04 46.8 °F 44.3 °F 29.85 in Calm     91% 0.04 in
16:09 46.7 °F 44.5 °F 29.86 in Calm     92% 0.04 in
16:14 46.7 °F 44.5 °F 29.85 in Calm     92% 0.04 in
16:19 46.5 °F 44.0 °F 29.85 in Calm     91% 0.04 in
16:24 46.2 °F 43.7 °F 29.84 in ENE 1.0 mph 3.0 mph 91% 0.04 in
16:29 46.1 °F 43.9 °F 29.85 in ENE 3.0 mph 3.0 mph 92% 0.04 in
16:34 46.1 °F 43.9 °F 29.85 in Calm   4.0 mph 92% 0.04 in
16:39 46.1 °F 43.9 °F 29.84 in ENE 1.0 mph 2.0 mph 92% 0.02 in
16:44 46.0 °F 43.8 °F 29.84 in Calm   3.0 mph 92% 0.01 in
16:49 46.0 °F 43.8 °F 29.84 in Calm     92% 0.01 in
16:54 45.8 °F 43.6 °F 29.83 in Calm   3.0 mph 92% 0.00 in
16:59 45.8 °F 43.6 °F 29.83 in ENE 1.0 mph 5.0 mph 92% 0.00 in
17:04 45.6 °F 43.4 °F 29.83 in ENE 1.0 mph 5.0 mph 92% 0.00 in
17:09 45.5 °F 43.3 °F 29.83 in ENE 1.0 mph 3.0 mph 92% 0.00 in
17:14 45.4 °F 43.2 °F 29.83 in ENE 1.0 mph 2.0 mph 92% 0.00 in
17:19 45.4 °F 43.2 °F 29.83 in Calm   1.0 mph 92% 0.00 in
17:24 45.4 °F 43.2 °F 29.83 in Calm   2.0 mph 92% 0.00 in
17:29 45.5 °F 43.3 °F 29.82 in Calm   2.0 mph 92% 0.00 in
17:34 45.5 °F 43.3 °F 29.83 in Calm     92% 0.00 in
17:39 45.6 °F 43.4 °F 29.82 in Calm     92% 0.00 in
17:44 45.7 °F 43.5 °F 29.82 in Calm     92% 0.00 in
17:49 45.8 °F 43.9 °F 29.82 in Calm     93% 0.00 in
17:54 45.8 °F 43.9 °F 29.82 in Calm     93% 0.00 in
17:59 45.8 °F 43.9 °F 29.81 in Calm     93% 0.00 in
18:04 45.7 °F 43.8 °F 29.81 in Calm     93% 0.00 in
18:09 45.8 °F 43.9 °F 29.81 in Calm     93% 0.00 in
18:14 46.0 °F 44.1 °F 29.81 in Calm     93% 0.00 in
18:19 46.1 °F 44.2 °F 29.81 in Calm     93% 0.00 in
18:24 46.2 °F 44.3 °F 29.81 in ENE 1.0 mph 2.0 mph 93% 0.00 in
18:29 46.3 °F 44.4 °F 29.81 in Calm   3.0 mph 93% 0.00 in
18:34 46.5 °F 44.6 °F 29.81 in Calm   3.0 mph 93% 0.00 in
18:39 46.3 °F 44.1 °F 29.80 in Calm   1.0 mph 92% 0.00 in
18:44 46.2 °F 44.3 °F 29.80 in Calm   1.0 mph 93% 0.00 in
18:49 46.3 °F 44.4 °F 29.80 in Calm     93% 0.00 in
18:54 46.3 °F 44.4 °F 29.80 in Calm     93% 0.00 in
18:59 46.2 °F 44.3 °F 29.79 in Calm     93% 0.00 in
19:04 46.3 °F 44.4 °F 29.79 in Calm     93% 0.00 in
19:09 46.4 °F 44.5 °F 29.79 in Calm     93% 0.00 in
19:14 46.4 °F 44.5 °F 29.78 in Calm     93% 0.00 in
19:19 46.4 °F 44.5 °F 29.78 in Calm     93% 0.00 in
19:24 46.5 °F 44.6 °F 29.78 in Calm     93% 0.00 in
19:29 46.6 °F 44.7 °F 29.77 in Calm     93% 0.00 in
19:34 46.5 °F 44.6 °F 29.77 in Calm     93% 0.00 in
19:39 46.6 °F 44.7 °F 29.77 in Calm     93% 0.00 in
19:44 46.8 °F 44.9 °F 29.77 in Calm     93% 0.00 in
19:49 47.0 °F 45.1 °F 29.77 in Calm     93% 0.00 in
19:54 47.2 °F 45.3 °F 29.76 in Calm     93% 0.00 in
19:59 47.4 °F 45.5 °F 29.76 in ENE 4.0 mph 4.0 mph 93% 0.00 in
20:04 47.8 °F 45.9 °F 29.77 in East 3.0 mph 6.0 mph 93% 0.00 in
20:09 48.1 °F 45.9 °F 29.76 in East 2.0 mph 6.0 mph 92% 0.00 in
20:19 48.7 °F 46.5 °F 29.76 in East 2.0 mph 6.0 mph 92% 0.00 in
20:24 49.0 °F 46.8 °F 29.75 in ESE 1.0 mph 7.0 mph 92% 0.00 in
20:29 49.2 °F 46.7 °F 29.75 in Calm   5.0 mph 91% 0.00 in
20:34 49.3 °F 46.8 °F 29.75 in ESE 3.0 mph 4.0 mph 91% 0.00 in
20:39 49.5 °F 46.7 °F 29.75 in SE 1.0 mph 5.0 mph 90% 0.00 in
20:44 49.8 °F 46.7 °F 29.75 in SE 3.0 mph 7.0 mph 89% 0.00 in
20:49 50.0 °F 46.9 °F 29.75 in SE 3.0 mph 7.0 mph 89% 0.00 in
20:54 50.1 °F 46.7 °F 29.75 in Calm   6.0 mph 88% 0.00 in
20:59 50.3 °F 46.6 °F 29.75 in Calm   4.0 mph 87% 0.00 in
21:04 50.3 °F 46.3 °F 29.74 in SE 1.0 mph 4.0 mph 86% 0.00 in
21:09 50.2 °F 46.2 °F 29.74 in Calm   3.0 mph 86% 0.00 in
21:14 50.2 °F 46.2 °F 29.74 in SE 1.0 mph 3.0 mph 86% 0.00 in
21:19 49.7 °F 45.7 °F 29.74 in Calm   1.0 mph 86% 0.00 in
21:24 49.4 °F 45.4 °F 29.74 in Calm   1.0 mph 86% 0.01 in
21:29 49.0 °F 45.0 °F 29.73 in Calm   1.0 mph 86% 0.01 in
21:34 49.0 °F 45.3 °F 29.73 in Calm     87% 0.01 in
21:39 48.9 °F 45.2 °F 29.73 in Calm     87% 0.01 in
21:44 48.7 °F 45.3 °F 29.73 in Calm     88% 0.01 in
21:54 48.3 °F 44.9 °F 29.72 in Calm     88% 0.02 in
22:09 48.6 °F 45.5 °F 29.71 in Calm     89% 0.03 in
22:14 48.8 °F 45.7 °F 29.71 in Calm     89% 0.04 in
22:24 48.7 °F 45.6 °F 29.71 in SE 1.0 mph 3.0 mph 89% 0.03 in
22:29 48.8 °F 45.7 °F 29.70 in SE 1.0 mph 3.0 mph 89% 0.03 in
22:34 48.9 °F 45.8 °F 29.70 in Calm     89% 0.04 in
22:44 49.0 °F 45.9 °F 29.69 in SSE 1.0 mph 6.0 mph 89% 0.04 in
22:49 49.0 °F 45.9 °F 29.69 in SSE 1.0 mph 3.0 mph 89% 0.04 in
22:54 48.8 °F 45.4 °F 29.68 in Calm   3.0 mph 88% 0.04 in
22:59 48.6 °F 45.2 °F 29.68 in SSE 1.0 mph 3.0 mph 88% 0.04 in
23:04 48.5 °F 45.4 °F 29.68 in Calm   2.0 mph 89% 0.05 in
23:09 48.4 °F 45.3 °F 29.68 in Calm   2.0 mph 89% 0.04 in
23:14 48.3 °F 45.2 °F 29.68 in Calm   2.0 mph 89% 0.03 in
23:19 48.1 °F 45.0 °F 29.68 in Calm   3.0 mph 89% 0.04 in
23:24 48.0 °F 44.9 °F 29.67 in SSE 1.0 mph 3.0 mph 89% 0.04 in
23:29 47.9 °F 44.8 °F 29.67 in SSE 1.0 mph 3.0 mph 89% 0.04 in
23:34 47.9 °F 44.8 °F 29.66 in SSE 2.0 mph 3.0 mph 89% 0.04 in
23:39 47.9 °F 44.8 °F 29.66 in SSE 2.0 mph 4.0 mph 89% 0.04 in
23:44 48.0 °F 44.9 °F 29.66 in SSE 2.0 mph 5.0 mph 89% 0.04 in
23:49 48.1 °F 45.0 °F 29.65 in SSE 2.0 mph 5.0 mph 89% 0.03 in
23:59 48.0 °F 44.6 °F 29.63 in Calm   3.0 mph 88% 0.04 in
Buffalo, New York, USA
Compliments of Weather Underground - 2.25 mb